createdAt,value
2022-08-14T00:02:33.181Z,4.50
2022-08-14T00:07:42.116Z,4.50
2022-08-14T00:12:56.368Z,4.50
2022-08-14T00:18:02.165Z,4.50
2022-08-14T00:23:12.467Z,4.50
2022-08-14T00:28:28.995Z,4.30
2022-08-14T00:33:51.838Z,4.10
2022-08-14T00:38:56.241Z,4.60
2022-08-14T00:44:00.659Z,4.30
2022-08-14T00:49:05.530Z,4.20
2022-08-14T00:54:16.951Z,4.80
2022-08-14T00:59:28.919Z,4.80
2022-08-14T01:04:38.116Z,4.50
2022-08-14T01:10:05.590Z,4.50
2022-08-14T01:15:14.707Z,4.60
2022-08-14T01:20:39.378Z,5.00
2022-08-14T01:25:44.278Z,5.20
2022-08-14T01:30:50.380Z,4.50
2022-08-14T01:36:04.624Z,4.90
2022-08-14T01:41:14.996Z,4.50
2022-08-14T01:46:24.590Z,5.40
2022-08-14T01:51:29.062Z,4.60
2022-08-14T01:56:41.227Z,5.30
2022-08-14T02:01:51.374Z,4.90
2022-08-14T02:07:03.506Z,4.90
2022-08-14T02:12:09.984Z,4.90
2022-08-14T02:17:23.881Z,5.10
2022-08-14T02:22:29.256Z,4.70
2022-08-14T02:28:23.886Z,5.00
2022-08-14T02:33:01.771Z,4.90
2022-08-14T02:38:06.164Z,4.70
2022-08-14T02:43:14.948Z,4.30
2022-08-14T02:49:04.320Z,4.80
2022-08-14T02:53:44.569Z,5.00
2022-08-14T02:58:50.099Z,4.60
2022-08-14T03:03:56.530Z,5.30
2022-08-14T03:09:00.276Z,4.40
2022-08-14T03:14:05.425Z,4.80
2022-08-14T03:19:11.714Z,4.30
2022-08-14T03:24:21.640Z,4.40
2022-08-14T03:29:27.953Z,5.00
2022-08-14T03:34:47.783Z,4.20
2022-08-14T03:39:53.566Z,4.80
2022-08-14T03:45:19.913Z,4.20
2022-08-14T03:50:27.510Z,4.50
2022-08-14T03:55:31.459Z,4.50
2022-08-14T04:00:43.371Z,4.30
2022-08-14T04:05:48.730Z,4.70
2022-08-14T04:10:52.726Z,4.30
2022-08-14T04:16:01.568Z,4.50
2022-08-14T04:21:06.166Z,4.50
2022-08-14T04:26:15.062Z,4.00
2022-08-14T04:33:01.130Z,3.80
2022-08-14T04:37:12.625Z,3.50
2022-08-14T04:42:35.078Z,3.80
2022-08-14T04:48:02.738Z,3.80
2022-08-14T04:53:06.228Z,3.90
2022-08-14T04:58:21.549Z,3.80
2022-08-14T05:03:28.489Z,3.80
2022-08-14T05:08:50.749Z,3.80
2022-08-14T05:14:42.763Z,3.80
2022-08-14T05:19:26.874Z,3.40
2022-08-14T05:24:31.071Z,3.50
2022-08-14T05:29:36.777Z,3.50
2022-08-14T05:34:40.009Z,3.50
2022-08-14T05:39:49.063Z,3.20
2022-08-14T05:44:55.293Z,3.30
2022-08-14T05:49:59.156Z,3.70
2022-08-14T05:55:02.416Z,3.60
2022-08-14T06:00:06.303Z,3.50
2022-08-14T06:05:12.827Z,3.30
2022-08-14T06:10:16.908Z,3.30
2022-08-14T06:15:25.215Z,3.80
2022-08-14T06:20:34.320Z,3.30
2022-08-14T06:25:37.965Z,3.50
2022-08-14T06:30:47.190Z,3.70
2022-08-14T06:35:51.177Z,3.70
2022-08-14T06:40:54.460Z,3.80
2022-08-14T06:45:57.950Z,3.70
2022-08-14T06:51:03.913Z,4.20
2022-08-14T06:56:07.302Z,3.70
2022-08-14T07:01:29.462Z,3.90
2022-08-14T07:06:34.411Z,3.60
2022-08-14T07:11:52.108Z,3.70
2022-08-14T07:16:56.878Z,4.00
2022-08-14T07:22:00.046Z,4.20
2022-08-14T07:27:09.516Z,3.90
2022-08-14T07:32:12.814Z,4.50
2022-08-14T07:37:25.788Z,4.40
2022-08-14T07:42:29.529Z,4.30
2022-08-14T07:47:32.744Z,4.70
2022-08-14T07:52:38.879Z,4.50
2022-08-14T07:57:45.285Z,4.10
2022-08-14T08:02:55.806Z,4.20
2022-08-14T08:08:00.652Z,4.40
2022-08-14T08:13:08.060Z,5.20
2022-08-14T08:18:20.245Z,5.10
2022-08-14T08:23:39.918Z,4.90
2022-08-14T08:28:44.500Z,5.30
2022-08-14T08:33:52.617Z,5.00
2022-08-14T08:39:18.702Z,5.60
2022-08-14T08:44:31.959Z,5.10
2022-08-14T08:49:48.192Z,5.90
2022-08-14T08:54:56.619Z,5.20
2022-08-14T09:00:02.587Z,5.70
2022-08-14T09:05:13.375Z,5.70
2022-08-14T09:10:22.127Z,6.30
2022-08-14T09:15:26.351Z,6.10
2022-08-14T09:20:42.980Z,6.00
2022-08-14T09:26:00.111Z,5.80
2022-08-14T09:31:17.500Z,5.50
2022-08-14T09:36:43.780Z,5.70
2022-08-14T09:42:20.824Z,5.80
2022-08-14T09:47:19.362Z,6.10
2022-08-14T09:52:33.917Z,6.10
2022-08-14T09:57:37.906Z,6.10
2022-08-14T10:02:56.655Z,6.50
2022-08-14T10:08:02.872Z,6.40
2022-08-14T10:13:24.691Z,6.20
2022-08-14T10:18:28.751Z,6.00
2022-08-14T10:23:52.654Z,6.60
2022-08-14T10:29:19.726Z,6.10
2022-08-14T10:34:36.734Z,6.20
2022-08-14T10:40:01.256Z,6.00
2022-08-14T10:45:21.829Z,6.50
2022-08-14T10:50:46.387Z,6.30
2022-08-14T10:55:59.303Z,6.20
2022-08-14T11:01:08.652Z,6.40
2022-08-14T11:06:18.953Z,6.90
2022-08-14T11:11:25.527Z,6.80
2022-08-14T11:16:41.178Z,7.00
2022-08-14T11:21:56.536Z,7.10
2022-08-14T11:27:02.412Z,7.20
2022-08-14T11:32:08.232Z,7.50
2022-08-14T11:37:23.548Z,7.20
2022-08-14T11:42:56.271Z,6.90
2022-08-14T11:49:02.359Z,7.00
2022-08-14T11:53:54.293Z,7.30
2022-08-14T11:58:58.591Z,7.20
2022-08-14T12:04:31.945Z,7.40
2022-08-14T12:09:43.189Z,7.10
2022-08-14T12:15:00.423Z,7.20
2022-08-14T12:20:07.001Z,6.90
2022-08-14T12:25:21.799Z,7.70
2022-08-14T12:30:39.703Z,7.10
2022-08-14T12:35:46.360Z,7.30
2022-08-14T12:40:52.401Z,7.80
2022-08-14T12:45:59.138Z,6.90
2022-08-14T12:51:04.484Z,6.90
2022-08-14T12:56:21.692Z,7.20
2022-08-14T13:02:00.197Z,7.30
2022-08-14T13:07:07.666Z,7.30
2022-08-14T13:12:32.087Z,7.10
2022-08-14T13:17:48.389Z,6.50
2022-08-14T13:22:56.279Z,6.80
2022-08-14T13:28:00.376Z,7.70
2022-08-14T13:33:06.995Z,7.10
2022-08-14T13:38:25.422Z,7.30
2022-08-14T13:43:36.584Z,8.40
2022-08-14T13:48:53.079Z,8.40
2022-08-14T13:54:10.566Z,8.80
2022-08-14T13:59:20.240Z,8.20
2022-08-14T14:04:32.195Z,8.50
2022-08-14T14:09:51.249Z,9.40
2022-08-14T14:14:57.607Z,9.50
2022-08-14T14:20:15.206Z,8.60
2022-08-14T14:25:46.426Z,8.70
2022-08-14T14:30:55.472Z,9.90
2022-08-14T14:36:02.941Z,6.00
2022-08-14T14:41:09.975Z,5.80
2022-08-14T14:46:16.307Z,3.30
2022-08-14T14:51:19.755Z,5.90
2022-08-14T14:56:52.276Z,7.00
2022-08-14T15:01:55.195Z,6.90
2022-08-14T15:07:01.123Z,7.70
2022-08-14T15:12:16.026Z,7.90
2022-08-14T15:17:21.655Z,7.10
2022-08-14T15:22:29.201Z,7.50
2022-08-14T15:27:35.145Z,7.20
2022-08-14T15:32:38.626Z,7.30
2022-08-14T15:37:42.926Z,8.00
2022-08-14T15:42:46.484Z,8.70
2022-08-14T15:47:51.182Z,8.10
2022-08-14T15:52:55.836Z,7.60
2022-08-14T15:58:03.522Z,7.20
2022-08-14T16:03:16.462Z,8.80
2022-08-14T16:08:26.813Z,9.10
2022-08-14T16:13:41.232Z,9.70
2022-08-14T16:18:46.940Z,10.90
2022-08-14T16:23:53.137Z,9.30
2022-08-14T16:29:09.555Z,10.50
2022-08-14T16:34:45.820Z,10.90
2022-08-14T16:39:39.695Z,10.90
2022-08-14T16:44:48.146Z,10.00
2022-08-14T16:50:04.696Z,11.50
2022-08-14T16:55:13.928Z,10.70
2022-08-14T17:00:43.586Z,12.00
2022-08-14T17:05:48.383Z,11.10
2022-08-14T17:10:51.618Z,11.80
2022-08-14T17:16:25.048Z,10.80
2022-08-14T17:21:40.905Z,11.40
2022-08-14T17:26:55.286Z,12.60
2022-08-14T17:32:21.906Z,13.30
2022-08-14T17:43:02.445Z,13.60
2022-08-14T17:49:14.857Z,16.50
2022-08-14T17:53:35.812Z,15.50
2022-08-14T17:58:42.126Z,19.30
2022-08-14T18:03:53.904Z,14.40
2022-08-14T18:08:59.132Z,14.40
2022-08-14T18:14:04.322Z,13.40
2022-08-14T18:19:12.109Z,12.60
2022-08-14T18:24:28.050Z,12.50
2022-08-14T18:29:35.798Z,12.60
2022-08-14T18:34:50.991Z,13.20
2022-08-14T18:40:17.631Z,15.60
2022-08-14T18:45:28.986Z,15.70
2022-08-14T18:50:33.514Z,15.20
2022-08-14T18:55:37.474Z,15.50
2022-08-14T19:00:58.762Z,16.80
2022-08-14T19:06:09.026Z,15.60
2022-08-14T19:11:40.610Z,17.60
2022-08-14T19:16:48.169Z,20.60
2022-08-14T19:21:57.443Z,16.60
2022-08-14T19:27:23.875Z,16.70
2022-08-14T19:32:32.603Z,29.10
2022-08-14T19:37:52.034Z,22.60
2022-08-14T19:42:59.356Z,19.60
2022-08-14T19:48:05.039Z,19.10
2022-08-14T19:53:16.720Z,18.10
2022-08-14T19:58:30.086Z,19.80
2022-08-14T20:04:00.137Z,19.30
2022-08-14T20:11:06.265Z,18.80
2022-08-14T20:14:37.508Z,20.50
2022-08-14T20:19:41.464Z,23.60
2022-08-14T20:24:47.392Z,21.20
2022-08-14T20:30:33.956Z,19.20
2022-08-14T20:35:39.686Z,17.10
2022-08-14T20:40:56.463Z,19.30
2022-08-14T20:45:59.924Z,18.30
2022-08-14T20:51:24.287Z,18.30
2022-08-14T20:56:38.326Z,17.40
2022-08-14T21:01:44.998Z,17.20
2022-08-14T21:07:23.985Z,16.20
2022-08-14T21:12:33.329Z,16.00
2022-08-14T21:17:47.245Z,17.60
2022-08-14T21:22:51.649Z,16.60
2022-08-14T21:27:59.061Z,16.20
2022-08-14T21:33:03.354Z,16.10
2022-08-14T21:38:09.665Z,16.10
2022-08-14T21:43:24.968Z,16.30
2022-08-14T21:48:32.219Z,15.50
2022-08-14T21:53:58.294Z,16.20
2022-08-14T21:59:02.782Z,14.90
2022-08-14T22:04:32.862Z,16.00
2022-08-14T22:09:36.581Z,15.40
2022-08-14T22:14:43.768Z,15.50
2022-08-14T22:19:54.836Z,15.50
2022-08-14T22:25:00.898Z,15.10
2022-08-14T22:30:12.841Z,15.90
2022-08-14T22:35:18.946Z,14.30
2022-08-14T22:41:20.141Z,14.10
2022-08-14T22:45:55.770Z,14.30
2022-08-14T22:50:59.807Z,15.80
2022-08-14T22:56:04.554Z,15.80
2022-08-14T23:01:13.769Z,15.20
2022-08-14T23:07:01.293Z,15.10
2022-08-14T23:11:43.903Z,16.20
2022-08-14T23:16:51.876Z,16.40
2022-08-14T23:22:01.155Z,15.90
2022-08-14T23:27:09.398Z,15.20
2022-08-14T23:32:24.873Z,15.80
2022-08-14T23:37:29.276Z,15.60
2022-08-14T23:42:39.697Z,14.40
2022-08-14T23:47:51.808Z,15.00
2022-08-14T23:53:07.856Z,14.60
2022-08-14T23:58:29.262Z,14.20
